Time;durP1;ratioP1;P1;durP2;ratioP2;P2;SDS_P1;SDS_P2;PMS_P1;PMS_P2;Temp;Humidity;BMP_temperature;BMP_pressure;BME280_temperature;BME280_humidity;BME280_pressure;Samples;Min_cycle;Max_cycle;Signal;HPM_P1;HPM_P2
2024/04/12 00:01:16;;;;;;;8.02;6.60;;;9.70;69.10;;;;;;5528383;25;20247;-71
2024/04/12 00:03:47;;;;;;;6.25;5.50;;;9.60;69.00;;;;;;5528082;25;20213;-71
2024/04/12 00:06:25;;;;;;;7.43;5.97;;;9.60;69.10;;;;;;5526280;25;20638;-71
2024/04/12 00:08:53;;;;;;;6.35;5.00;;;9.60;68.80;;;;;;5527954;25;20264;-71
2024/04/12 00:11:25;;;;;;;7.25;5.40;;;9.60;70.00;;;;;;5528011;25;20252;-70
2024/04/12 00:13:52;;;;;;;7.47;4.72;;;9.60;69.10;;;;;;5528342;25;20256;-71
2024/04/12 00:16:23;;;;;;;7.47;5.53;;;9.70;68.60;;;;;;5527511;25;20225;-70
2024/04/12 00:18:58;;;;;;;7.28;5.35;;;9.70;68.20;;;;;;5528275;25;20239;-71
2024/04/12 00:21:27;;;;;;;8.13;5.68;;;9.60;68.10;;;;;;5528044;25;20543;-71
2024/04/12 00:23:53;;;;;;;5.32;4.82;;;9.60;68.00;;;;;;5527774;25;20533;-71
2024/04/12 00:26:29;;;;;;;5.70;5.00;;;9.60;68.50;;;;;;5527543;25;20804;-71
2024/04/12 00:28:58;;;;;;;6.25;5.20;;;9.60;68.30;;;;;;5526358;25;20307;-71
2024/04/12 00:31:27;;;;;;;6.28;4.85;;;9.60;65.90;;;;;;5527853;25;20695;-71
2024/04/12 00:33:55;;;;;;;7.60;5.75;;;9.50;64.90;;;;;;5527617;25;20300;-70
2024/04/12 00:36:24;;;;;;;10.15;5.43;;;9.50;65.20;;;;;;5527242;25;20229;-71
2024/04/12 00:38:55;;;;;;;6.50;5.75;;;9.40;65.30;;;;;;5527857;25;20305;-71
2024/04/12 00:41:26;;;;;;;8.48;5.50;;;9.30;65.50;;;;;;5527531;25;20316;-71
2024/04/12 00:43:52;;;;;;;5.63;4.88;;;9.30;65.30;;;;;;5527487;25;20766;-70
2024/04/12 00:46:25;;;;;;;8.60;5.82;;;9.20;65.00;;;;;;5527113;25;20551;-71
2024/04/12 00:48:52;;;;;;;11.27;5.57;;;9.10;65.50;;;;;;5527426;25;20213;-71
2024/04/12 00:51:24;;;;;;;11.60;5.13;;;9.00;66.40;;;;;;5527513;25;20260;-71
2024/04/12 00:53:56;;;;;;;9.23;6.25;;;8.90;67.30;;;;;;5527668;25;20248;-71
2024/04/12 00:56:29;;;;;;;6.55;5.10;;;8.90;67.90;;;;;;5526919;25;20225;-70
2024/04/12 00:58:56;;;;;;;9.23;6.05;;;8.80;68.80;;;;;;5527315;25;20313;-71
2024/04/12 01:01:26;;;;;;;10.93;7.57;;;8.80;69.20;;;;;;5526823;25;20268;-71
2024/04/12 01:03:54;;;;;;;8.85;6.90;;;8.80;69.70;;;;;;5527388;25;20210;-72
2024/04/12 01:06:24;;;;;;;8.70;7.65;;;8.70;70.10;;;;;;5526052;25;20280;-71
2024/04/12 01:08:51;;;;;;;8.10;6.20;;;8.70;71.20;;;;;;5527085;25;20537;-71
2024/04/12 01:11:22;;;;;;;7.85;6.40;;;8.70;71.50;;;;;;5526959;25;20309;-71
2024/04/12 01:13:52;;;;;;;9.55;6.78;;;8.70;72.10;;;;;;5526731;25;20226;-71
2024/04/12 01:16:21;;;;;;;6.80;5.95;;;8.60;70.80;;;;;;5525550;25;20649;-71
2024/04/12 01:18:55;;;;;;;7.45;6.00;;;8.60;70.90;;;;;;5527098;25;20213;-71
2024/04/12 01:21:24;;;;;;;7.22;6.43;;;8.60;70.90;;;;;;5527408;25;20222;-71
2024/04/12 01:23:53;;;;;;;7.65;5.80;;;8.60;71.10;;;;;;5526723;25;20209;-72
2024/04/12 01:26:27;;;;;;;9.05;5.90;;;8.60;70.80;;;;;;5526342;25;20233;-71
2024/04/12 01:28:56;;;;;;;8.50;6.45;;;8.60;70.90;;;;;;5526870;25;20615;-71
2024/04/12 01:31:27;;;;;;;6.13;5.53;;;8.60;71.20;;;;;;5526689;25;20247;-70
2024/04/12 01:33:55;;;;;;;9.00;5.80;;;8.60;71.20;;;;;;5526658;25;20263;-70
2024/04/12 01:36:26;;;;;;;8.57;6.53;;;8.50;71.20;;;;;;5526543;25;20225;-71
2024/04/12 01:38:53;;;;;;;6.90;6.20;;;8.50;71.40;;;;;;5527695;25;20257;-70
2024/04/12 01:41:31;;;;;;;7.13;5.57;;;8.50;71.50;;;;;;5530055;25;20304;-71
2024/04/12 01:44:04;;;;;;;7.85;5.03;;;8.50;71.50;;;;;;5530146;25;20209;-70
2024/04/12 01:46:34;;;;;;;7.93;6.60;;;8.50;71.70;;;;;;5529699;25;20229;-71
2024/04/12 01:49:00;;;;;;;6.47;5.40;;;8.50;71.60;;;;;;5530118;25;20589;-71
2024/04/12 01:51:34;;;;;;;6.47;5.30;;;8.50;71.20;;;;;;5529973;25;20594;-71
2024/04/12 01:54:04;;;;;;;6.57;5.45;;;8.40;71.10;;;;;;5530318;25;20239;-70
2024/04/12 01:56:37;;;;;;;6.95;5.65;;;8.40;71.60;;;;;;5529646;25;20357;-71
2024/04/12 01:59:03;;;;;;;8.13;4.80;;;8.30;71.70;;;;;;5529894;25;20755;-71
2024/04/12 02:01:34;;;;;;;6.78;4.85;;;8.30;71.00;;;;;;5529893;25;20213;-70
2024/04/12 02:04:02;;;;;;;7.20;4.75;;;8.30;70.70;;;;;;5529308;25;20375;-71
2024/04/12 02:06:33;;;;;;;6.30;5.28;;;8.30;70.30;;;;;;5529482;25;20280;-71
2024/04/12 02:08:59;;;;;;;5.65;5.03;;;8.30;70.00;;;;;;5529856;25;20210;-70
2024/04/12 02:11:27;;;;;;;8.25;5.20;;;8.30;70.70;;;;;;5529715;25;20214;-71
2024/04/12 02:13:57;;;;;;;6.38;5.30;;;8.30;71.90;;;;;;5529751;25;20694;-71
2024/04/12 02:16:27;;;;;;;8.95;5.65;;;8.40;71.60;;;;;;5529215;25;20229;-70
2024/04/12 02:18:53;;;;;;;6.38;4.80;;;8.30;70.30;;;;;;5529610;25;20213;-71
2024/04/12 02:21:21;;;;;;;7.47;5.45;;;8.30;71.30;;;;;;5529584;25;20566;-71
2024/04/12 02:23:48;;;;;;;8.13;5.35;;;8.30;72.60;;;;;;5529512;25;20738;-70
2024/04/12 02:26:17;;;;;;;6.55;5.57;;;8.20;72.80;;;;;;5529083;25;20229;-70
2024/04/12 02:28:43;;;;;;;5.20;4.65;;;8.20;73.40;;;;;;5529313;25;20784;-71
2024/04/12 02:31:14;;;;;;;9.23;5.30;;;8.20;73.30;;;;;;5527304;25;20237;-72
2024/04/12 02:33:42;;;;;;;6.70;5.20;;;8.20;73.40;;;;;;5528739;25;20608;-72
2024/04/12 02:36:16;;;;;;;5.78;4.68;;;8.30;73.20;;;;;;5529616;25;20715;-71
2024/04/12 02:38:43;;;;;;;8.23;4.90;;;8.30;72.00;;;;;;5529520;25;20293;-71
2024/04/12 02:41:16;;;;;;;6.45;5.15;;;8.20;71.10;;;;;;5529200;25;20728;-71
2024/04/12 02:43:42;;;;;;;9.65;5.15;;;8.20;71.10;;;;;;5529353;25;20282;-71
2024/04/12 02:46:15;;;;;;;7.65;5.13;;;8.10;70.90;;;;;;5529280;25;20213;-71
2024/04/12 02:48:43;;;;;;;6.85;5.30;;;8.20;70.60;;;;;;5529492;25;20213;-71
2024/04/12 02:51:17;;;;;;;6.35;4.90;;;8.20;69.20;;;;;;5527930;25;20225;-70
2024/04/12 02:53:44;;;;;;;7.30;4.75;;;8.20;67.90;;;;;;5529086;25;20212;-71
2024/04/12 02:56:14;;;;;;;6.00;4.60;;;8.10;67.60;;;;;;5528714;25;20229;-70
2024/04/12 02:58:42;;;;;;;5.40;4.90;;;8.00;67.60;;;;;;5529328;25;20221;-70
2024/04/12 03:01:14;;;;;;;8.10;5.20;;;8.00;67.80;;;;;;5528768;25;20229;-71
2024/04/12 03:03:45;;;;;;;5.55;4.45;;;7.90;68.20;;;;;;5529282;25;20718;-71
2024/04/12 03:06:14;;;;;;;6.72;5.25;;;7.90;68.30;;;;;;5528600;25;20297;-71
2024/04/12 03:08:44;;;;;;;5.90;3.90;;;7.80;67.80;;;;;;5529162;25;20302;-71
2024/04/12 03:11:21;;;;;;;6.13;5.40;;;7.80;67.50;;;;;;5528693;25;20221;-71
2024/04/12 03:13:50;;;;;;;5.25;4.25;;;7.70;68.50;;;;;;5528654;25;20304;-71
2024/04/12 03:16:22;;;;;;;7.57;3.90;;;7.70;70.30;;;;;;5528739;25;20259;-71
2024/04/12 03:18:51;;;;;;;5.88;4.25;;;7.70;70.30;;;;;;5529264;25;20213;-71
2024/04/12 03:21:21;;;;;;;5.78;4.90;;;7.60;69.30;;;;;;5528575;25;20292;-70
2024/04/12 03:23:47;;;;;;;5.53;4.80;;;7.60;70.10;;;;;;5529263;25;20577;-71
2024/04/12 03:26:21;;;;;;;6.72;5.50;;;7.60;70.80;;;;;;5528897;25;20264;-71
2024/04/12 03:28:50;;;;;;;6.45;5.13;;;7.60;71.10;;;;;;5528597;25;20244;-71
2024/04/12 03:31:25;;;;;;;7.80;7.00;;;7.50;71.50;;;;;;5528102;25;20267;-71
2024/04/12 03:33:54;;;;;;;12.65;7.15;;;7.40;72.00;;;;;;5528444;25;20240;-71
2024/04/12 03:36:53;;;;;;;12.77;9.07;;;7.40;72.60;;;;;;5528497;25;20275;-71
2024/04/12 03:39:34;;;;;;;9.88;6.80;;;7.40;73.40;;;;;;5528551;26;20210;-71
2024/04/12 03:42:08;;;;;;;10.20;5.82;;;7.30;73.30;;;;;;5527529;25;20757;-71
2024/04/12 03:44:36;;;;;;;7.00;5.60;;;7.30;73.30;;;;;;5528402;25;20213;-72
2024/04/12 03:47:10;;;;;;;7.03;5.93;;;7.40;73.30;;;;;;5528618;26;20273;-71
2024/04/12 03:49:39;;;;;;;9.65;5.80;;;7.40;73.70;;;;;;5528315;25;20539;-70
2024/04/12 03:52:11;;;;;;;6.85;5.05;;;7.40;74.30;;;;;;5527047;25;20225;-71
2024/04/12 03:54:39;;;;;;;9.75;5.07;;;7.40;74.10;;;;;;5528250;25;20213;-71
2024/04/12 03:57:09;;;;;;;6.35;5.22;;;7.40;74.50;;;;;;5528202;25;20684;-71
2024/04/12 03:59:36;;;;;;;7.05;5.13;;;7.30;74.50;;;;;;5528198;25;20256;-71
2024/04/12 04:02:09;;;;;;;8.40;5.60;;;7.30;75.10;;;;;;5524982;25;20314;-70
2024/04/12 04:04:44;;;;;;;6.00;4.47;;;7.20;75.80;;;;;;5526871;25;20719;-71
2024/04/12 04:07:15;;;;;;;7.53;4.70;;;7.20;75.60;;;;;;5527993;26;20213;-71
2024/04/12 04:09:42;;;;;;;6.20;5.30;;;7.20;75.80;;;;;;5528441;25;20217;-71
2024/04/12 04:12:14;;;;;;;9.13;4.93;;;7.20;75.60;;;;;;5527352;25;20237;-71
2024/04/12 04:14:47;;;;;;;10.90;5.40;;;7.20;74.40;;;;;;5528012;25;20209;-71
2024/04/12 04:17:29;;;;;;;5.00;4.30;;;7.20;73.60;;;;;;5527940;25;20213;-71
2024/04/12 04:19:57;;;;;;;7.45;5.65;;;7.30;72.50;;;;;;5527810;25;20213;-71
2024/04/12 04:22:39;;;;;;;6.22;4.43;;;7.30;72.40;;;;;;5527375;25;20229;-71
2024/04/12 04:25:07;;;;;;;7.70;5.63;;;7.30;71.30;;;;;;5527814;25;20328;-71
2024/04/12 04:27:37;;;;;;;6.47;5.15;;;7.30;71.30;;;;;;5527443;25;20229;-71
2024/04/12 04:30:05;;;;;;;6.63;4.90;;;7.20;71.90;;;;;;5527708;25;20210;-70
2024/04/12 04:32:36;;;;;;;7.32;5.75;;;7.30;71.40;;;;;;5527734;25;20301;-71
2024/04/12 04:35:08;;;;;;;7.38;6.15;;;7.20;71.70;;;;;;5527751;25;20745;-71
2024/04/12 04:37:38;;;;;;;6.78;5.65;;;7.20;72.40;;;;;;5527532;25;20734;-70
2024/04/12 04:40:11;;;;;;;7.35;5.07;;;7.30;73.30;;;;;;5527050;25;20308;-71
2024/04/12 04:42:43;;;;;;;6.18;5.38;;;7.30;73.70;;;;;;5526754;25;20225;-71
2024/04/12 04:45:09;;;;;;;6.50;4.80;;;7.30;73.70;;;;;;5526992;25;20534;-71
2024/04/12 04:47:40;;;;;;;7.60;5.20;;;7.30;73.20;;;;;;5527529;25;20646;-71
2024/04/12 04:50:08;;;;;;;6.57;5.55;;;7.30;73.00;;;;;;5526763;25;20268;-71
2024/04/12 04:52:38;;;;;;;6.03;5.43;;;7.30;72.50;;;;;;5526629;25;20252;-70
2024/04/12 04:55:07;;;;;;;6.35;5.30;;;7.40;71.00;;;;;;5526807;25;20263;-71
2024/04/12 04:57:35;;;;;;;6.03;4.60;;;7.40;70.30;;;;;;5526784;25;20260;-70
2024/04/12 05:00:06;;;;;;;8.30;5.97;;;7.30;70.70;;;;;;5526887;25;20213;-71
2024/04/12 05:02:35;;;;;;;8.07;6.55;;;7.30;70.30;;;;;;5526807;25;20320;-71
2024/04/12 05:05:05;;;;;;;9.52;6.60;;;7.20;70.10;;;;;;5526810;25;20711;-71
2024/04/12 05:07:35;;;;;;;7.85;6.55;;;7.20;70.10;;;;;;5525861;25;20225;-71
2024/04/12 05:10:09;;;;;;;8.45;6.65;;;7.20;70.70;;;;;;5525933;25;20698;-71
2024/04/12 05:12:40;;;;;;;7.85;6.28;;;7.30;71.20;;;;;;5489628;26;20249;-71
2024/04/12 05:15:30;;;;;;;16.10;10.73;;;7.30;71.50;;;;;;5488860;26;20261;-71
2024/04/12 05:18:03;;;;;;;10.68;9.20;;;7.30;72.20;;;;;;5489286;26;20207;-71
2024/04/12 05:20:41;;;;;;;10.60;7.43;;;7.20;72.50;;;;;;5490487;26;20274;-70
2024/04/12 05:23:08;;;;;;;12.55;7.35;;;7.20;73.10;;;;;;5522463;26;20255;-71
2024/04/12 05:25:37;;;;;;;10.55;7.55;;;7.20;73.70;;;;;;5525577;25;20259;-70
2024/04/12 05:28:06;;;;;;;7.57;5.90;;;7.20;73.70;;;;;;5527129;25;20241;-71
2024/04/12 05:30:36;;;;;;;8.82;6.07;;;7.30;73.90;;;;;;5526177;25;20577;-71
2024/04/12 05:33:03;;;;;;;7.05;5.65;;;7.30;73.90;;;;;;5525711;25;20230;-71
2024/04/12 05:35:37;;;;;;;5.93;5.15;;;7.40;73.90;;;;;;5522144;25;20213;-71
2024/04/12 05:38:07;;;;;;;8.32;5.35;;;7.40;74.40;;;;;;5523840;25;20214;-71
2024/04/12 05:40:39;;;;;;;7.10;4.90;;;7.50;75.20;;;;;;5522189;25;20257;-71
2024/04/12 05:43:13;;;;;;;7.05;5.40;;;7.60;75.60;;;;;;5523038;25;20240;-71
2024/04/12 05:45:44;;;;;;;5.60;5.10;;;7.70;76.20;;;;;;5524497;25;20252;-71
2024/04/12 05:48:15;;;;;;;12.50;4.55;;;7.80;77.30;;;;;;5525752;25;20225;-71
2024/04/12 05:50:48;;;;;;;7.30;4.80;;;7.90;77.60;;;;;;5526380;25;20264;-71
2024/04/12 05:53:17;;;;;;;8.30;4.22;;;8.00;77.80;;;;;;5525721;25;20562;-71
2024/04/12 05:55:52;;;;;;;5.90;5.18;;;8.10;78.10;;;;;;5525830;25;20322;-71
2024/04/12 05:58:23;;;;;;;6.15;4.82;;;8.20;77.80;;;;;;5525005;25;20554;-71
2024/04/12 06:00:56;;;;;;;4.82;4.32;;;8.30;77.90;;;;;;5525538;25;20690;-71
2024/04/12 06:03:25;;;;;;;4.90;4.05;;;8.40;78.60;;;;;;5525831;25;20209;-71
2024/04/12 06:05:58;;;;;;;7.10;4.60;;;8.50;79.60;;;;;;5525575;25;20288;-71
2024/04/12 06:08:24;;;;;;;6.35;5.50;;;8.70;79.70;;;;;;5524120;25;20351;-71
2024/04/12 06:10:55;;;;;;;6.85;5.75;;;8.90;79.90;;;;;;5524456;25;20757;-70
2024/04/12 06:13:23;;;;;;;7.65;6.47;;;9.00;79.00;;;;;;5520605;25;20225;-72
2024/04/12 06:15:54;;;;;;;6.57;4.50;;;9.10;79.10;;;;;;5524915;25;20221;-71
2024/04/12 06:18:20;;;;;;;5.13;4.35;;;9.30;78.90;;;;;;5518682;25;20222;-72
2024/04/12 06:20:49;;;;;;;6.07;4.00;;;9.40;77.70;;;;;;5488354;26;20261;-71
2024/04/12 06:23:19;;;;;;;7.88;4.80;;;9.60;76.90;;;;;;5513245;26;20654;-71
2024/04/12 06:25:49;;;;;;;6.55;4.85;;;9.70;76.30;;;;;;5525645;25;20213;-71
2024/04/12 06:28:16;;;;;;;9.27;4.80;;;9.80;76.40;;;;;;5528848;25;20722;-71
2024/04/12 06:30:47;;;;;;;5.90;5.30;;;9.90;77.00;;;;;;5528758;25;20256;-71
2024/04/12 06:33:13;;;;;;;6.85;4.40;;;10.00;74.90;;;;;;5528749;25;20225;-71
2024/04/12 06:35:44;;;;;;;7.70;4.63;;;10.10;74.80;;;;;;5527531;25;20345;-71
2024/04/12 06:38:10;;;;;;;5.30;3.83;;;10.30;74.70;;;;;;5527723;25;20221;-71
2024/04/12 06:40:44;;;;;;;5.85;5.25;;;10.40;75.30;;;;;;5524375;25;20233;-72
2024/04/12 06:43:11;;;;;;;7.05;4.57;;;10.50;75.10;;;;;;5514567;25;20736;-71
2024/04/12 06:45:44;;;;;;;7.55;5.65;;;10.70;72.20;;;;;;5528627;25;20237;-71
2024/04/12 06:48:10;;;;;;;6.75;5.50;;;10.80;70.90;;;;;;5527768;25;20222;-71
2024/04/12 06:50:39;;;;;;;7.05;5.82;;;10.90;71.80;;;;;;5527911;25;20229;-71
2024/04/12 06:53:08;;;;;;;14.02;4.78;;;11.00;72.20;;;;;;5525087;25;20281;-72
2024/04/12 06:55:46;;;;;;;5.70;4.57;;;11.10;73.40;;;;;;5526778;25;20225;-71
2024/04/12 06:58:14;;;;;;;5.80;4.75;;;11.20;73.90;;;;;;5528747;25;20687;-71
2024/04/12 07:00:43;;;;;;;6.70;5.47;;;11.40;73.70;;;;;;5527973;25;20534;-71
2024/04/12 07:03:15;;;;;;;7.03;4.85;;;11.60;74.60;;;;;;5528638;25;20269;-72
2024/04/12 07:05:48;;;;;;;6.68;4.82;;;11.80;72.40;;;;;;5528388;25;20229;-71
2024/04/12 07:08:16;;;;;;;7.20;5.63;;;11.90;73.00;;;;;;5528998;25;20260;-71
2024/04/12 07:10:48;;;;;;;7.50;5.20;;;12.10;74.40;;;;;;5528420;25;20498;-70
2024/04/12 07:13:15;;;;;;;6.57;5.30;;;12.30;72.80;;;;;;5528417;25;20545;-71
2024/04/12 07:15:45;;;;;;;7.40;6.27;;;12.40;72.60;;;;;;5528338;25;20959;-71
2024/04/12 07:18:11;;;;;;;8.57;6.80;;;12.70;70.60;;;;;;5529210;25;20446;-71
2024/04/12 07:21:14;;;;;;;6.43;5.83;;;12.90;69.90;;;;;;5528462;25;20446;-71
2024/04/12 07:23:41;;;;;;;9.00;7.00;;;13.10;69.30;;;;;;5528491;25;20816;-71
2024/04/12 07:26:14;;;;;;;6.60;5.83;;;13.50;69.10;;;;;;5528257;25;20506;-71
2024/04/12 07:28:41;;;;;;;8.73;6.27;;;13.80;65.70;;;;;;5528115;25;20461;-71
2024/04/12 07:31:09;;;;;;;4.97;4.30;;;14.00;64.80;;;;;;5528081;25;20442;-71
2024/04/12 07:33:35;;;;;;;11.50;5.13;;;14.30;66.50;;;;;;5528044;25;20462;-71
2024/04/12 07:36:16;;;;;;;8.07;5.13;;;14.80;65.20;;;;;;5527960;25;20528;-71
2024/04/12 07:38:44;;;;;;;6.73;5.13;;;15.20;63.10;;;;;;5528445;25;20543;-71
2024/04/12 07:41:15;;;;;;;6.43;4.77;;;15.70;61.20;;;;;;5528002;25;20446;-71
2024/04/12 07:43:42;;;;;;;7.53;5.20;;;16.20;61.90;;;;;;5528012;25;20454;-71
2024/04/12 07:46:14;;;;;;;7.80;4.60;;;16.70;59.70;;;;;;5527894;25;20442;-71
2024/04/12 07:48:41;;;;;;;8.63;4.40;;;17.30;61.10;;;;;;5528232;25;20460;-72
2024/04/12 07:51:12;;;;;;;7.07;4.90;;;17.80;58.90;;;;;;5527848;25;20562;-72
2024/04/12 07:53:38;;;;;;;6.47;4.30;;;18.40;58.10;;;;;;5528056;25;20456;-72
2024/04/12 07:56:14;;;;;;;5.67;4.27;;;19.00;54.40;;;;;;5528141;25;20610;-72
2024/04/12 07:58:43;;;;;;;6.63;4.87;;;19.40;52.50;;;;;;5527922;25;20494;-71
2024/04/12 08:01:15;;;;;;;6.33;3.97;;;19.80;50.30;;;;;;5527755;25;20571;-72
2024/04/12 08:03:42;;;;;;;7.00;4.10;;;20.20;49.50;;;;;;5527739;25;20450;-72
2024/04/12 08:06:18;;;;;;;7.70;4.60;;;20.70;49.60;;;;;;5527868;25;20458;-71
2024/04/12 08:08:45;;;;;;;5.23;4.70;;;21.10;48.90;;;;;;5528143;25;20806;-72
2024/04/12 08:14:05;;;;;;;9.70;3.73;;;22.20;45.20;;;;;;5527681;25;20438;-71
2024/04/12 08:16:35;;;;;;;5.20;3.90;;;22.60;44.90;;;;;;5527571;25;20498;-72
2024/04/12 08:19:12;;;;;;;7.23;3.73;;;23.00;42.70;;;;;;5527835;25;20446;-72
2024/04/12 08:21:39;;;;;;;5.27;3.90;;;23.50;43.30;;;;;;5527508;25;20450;-72
2024/04/12 08:24:09;;;;;;;5.57;3.87;;;23.90;40.10;;;;;;5527453;25;20454;-72
2024/04/12 08:26:37;;;;;;;6.73;3.57;;;24.10;39.20;;;;;;5527697;25;20494;-72
2024/04/12 08:29:16;;;;;;;8.60;3.63;;;24.40;38.10;;;;;;5527595;25;20502;-72
2024/04/12 08:31:49;;;;;;;5.83;3.73;;;24.70;37.20;;;;;;5527283;25;20446;-72
2024/04/12 08:34:20;;;;;;;6.27;4.23;;;24.90;36.80;;;;;;5527264;25;20492;-72
2024/04/12 08:36:49;;;;;;;5.70;3.30;;;24.50;35.20;;;;;;5527412;25;20509;-73
2024/04/12 08:39:29;;;;;;;5.27;3.50;;;24.70;36.30;;;;;;5527043;25;20552;-72
2024/04/12 08:41:59;;;;;;;5.97;3.27;;;24.90;35.70;;;;;;5527476;25;20503;-72
2024/04/12 08:44:35;;;;;;;6.93;3.50;;;24.60;35.60;;;;;;5526947;25;21077;-72
2024/04/12 08:47:16;;;;;;;6.27;3.90;;;24.80;35.70;;;;;;5527198;25;20449;-72
2024/04/12 08:49:51;;;;;;;6.30;3.50;;;25.20;36.70;;;;;;5525742;25;20505;-72
2024/04/12 08:55:04;;;;;;;5.43;3.50;;;26.10;37.00;;;;;;5526475;26;20502;-72
2024/04/12 08:57:33;;;;;;;5.13;3.47;;;26.70;35.70;;;;;;5526887;25;20473;-72
2024/04/12 09:00:07;;;;;;;8.20;3.27;;;27.20;33.80;;;;;;5526863;25;20801;-72
2024/04/12 09:02:40;;;;;;;5.70;3.80;;;27.50;32.80;;;;;;5527004;25;20450;-72
2024/04/12 09:05:09;;;;;;;10.23;3.30;;;27.90;31.90;;;;;;5526685;25;20617;-72
2024/04/12 09:07:42;;;;;;;6.67;2.77;;;28.10;29.80;;;;;;5525110;25;20523;-72
2024/04/12 09:10:15;;;;;;;6.20;3.13;;;28.10;30.20;;;;;;5526836;25;20556;-72
2024/04/12 09:12:43;;;;;;;4.53;3.07;;;28.30;31.00;;;;;;5526617;25;20885;-72
2024/04/12 09:15:23;;;;;;;4.70;2.90;;;28.40;29.80;;;;;;5526502;25;20835;-72
2024/04/12 09:18:00;;;;;;;6.67;2.87;;;28.10;29.60;;;;;;5526410;25;20469;-72
2024/04/12 09:20:35;;;;;;;9.10;3.60;;;27.90;30.70;;;;;;5526200;25;20449;-72
2024/04/12 09:23:19;;;;;;;4.00;2.40;;;28.20;32.20;;;;;;5525580;25;20828;-72
2024/04/12 09:25:54;;;;;;;5.37;3.03;;;28.60;30.80;;;;;;5526769;25;20502;-72
2024/04/12 09:28:22;;;;;;;4.33;2.63;;;29.00;30.20;;;;;;5526405;25;20497;-72
2024/04/12 09:33:50;;;;;;;6.67;3.03;;;29.50;29.90;;;;;;5528602;26;20474;-72
2024/04/12 09:36:38;;;;;;;4.40;2.60;;;29.70;28.80;;;;;;5526094;25;20450;-72
2024/04/12 09:39:13;;;;;;;5.83;2.87;;;29.80;28.20;;;;;;5525419;25;20453;-72
2024/04/12 09:41:53;;;;;;;5.40;2.90;;;29.80;28.00;;;;;;5525779;25;20777;-72
2024/04/12 09:44:26;;;;;;;4.07;2.90;;;29.80;29.00;;;;;;5523862;26;20450;-72
2024/04/12 10:37:39;;;;;;;4.83;2.10;;;30.30;27.00;;;;;;5531906;26;20473;-73
2024/04/12 10:40:09;;;;;;;5.30;2.90;;;30.20;26.50;;;;;;5528989;25;20454;-72
2024/04/12 10:42:38;;;;;;;5.00;3.03;;;30.10;26.50;;;;;;5528894;25;20446;-72
2024/04/12 10:45:15;;;;;;;3.50;2.23;;;30.10;26.50;;;;;;5529211;25;20449;-72
2024/04/12 10:47:44;;;;;;;4.77;2.07;;;30.20;26.40;;;;;;5529232;25;20456;-72
2024/04/12 10:50:11;;;;;;;4.27;2.10;;;30.30;27.10;;;;;;5528947;25;20445;-73
2024/04/12 10:52:43;;;;;;;3.07;1.80;;;30.50;26.20;;;;;;5528838;25;20466;-69
2024/04/12 10:55:10;;;;;;;5.50;3.10;;;30.60;26.40;;;;;;5528674;25;20888;-70
2024/04/12 10:57:41;;;;;;;4.30;2.40;;;30.80;26.30;;;;;;5528719;25;20442;-69
2024/04/12 11:00:14;;;;;;;4.50;1.80;;;30.90;26.10;;;;;;5528755;25;20498;-69
2024/04/12 11:02:44;;;;;;;4.97;1.87;;;30.80;26.50;;;;;;5528671;25;20775;-69
2024/04/12 11:08:02;;;;;;;3.80;2.00;;;31.00;25.30;;;;;;5509139;25;20812;-71
2024/04/12 11:10:39;;;;;;;3.60;2.10;;;31.10;25.10;;;;;;5528101;25;20465;-69
2024/04/12 11:13:16;;;;;;;5.07;2.60;;;31.10;25.90;;;;;;5527527;25;20531;-70
2024/04/12 11:32:24;;;;;;;4.90;2.23;;;30.10;26.00;;;;;;5530822;26;20539;-70
2024/04/12 11:34:53;;;;;;;3.97;2.10;;;29.90;25.20;;;;;;5491146;26;20500;-69
2024/04/12 11:37:24;;;;;;;4.00;2.17;;;30.00;26.40;;;;;;5508203;25;21044;-69
2024/04/12 11:39:56;;;;;;;3.77;1.77;;;29.90;25.00;;;;;;5543852;25;20600;-69
2024/04/12 11:42:24;;;;;;;3.07;1.67;;;29.90;25.70;;;;;;5527546;25;20458;-69
2024/04/12 11:44:53;;;;;;;3.43;1.53;;;29.80;25.70;;;;;;5526634;25;20517;-69
2024/04/12 11:47:23;;;;;;;5.03;1.80;;;29.60;26.40;;;;;;5525323;25;20513;-69
2024/04/12 11:49:57;;;;;;;5.73;1.90;;;29.60;25.40;;;;;;5526884;25;20622;-69
2024/04/12 11:52:25;;;;;;;3.57;1.70;;;29.50;25.50;;;;;;5527830;25;20445;-69
2024/04/12 11:54:59;;;;;;;6.77;2.00;;;29.50;25.60;;;;;;5527110;25;20573;-69
2024/04/12 11:57:27;;;;;;;4.07;2.17;;;29.60;26.20;;;;;;5527749;25;20502;-69
2024/04/12 11:59:58;;;;;;;5.00;1.70;;;29.70;26.50;;;;;;5522879;25;20596;-69
2024/04/12 12:02:28;;;;;;;8.90;1.73;;;29.80;26.00;;;;;;5522656;25;20506;-72
2024/04/12 12:04:57;;;;;;;5.37;2.13;;;29.80;26.30;;;;;;5527828;26;20477;-69
2024/04/12 12:07:23;;;;;;;5.17;1.97;;;29.60;26.20;;;;;;5527514;25;20494;-69
2024/04/12 12:09:52;;;;;;;3.80;1.90;;;29.50;25.90;;;;;;5528273;25;20571;-69
2024/04/12 12:12:22;;;;;;;3.33;1.60;;;29.40;26.30;;;;;;5527828;25;20486;-70
2024/04/12 12:14:51;;;;;;;4.20;1.57;;;29.30;26.00;;;;;;5527504;25;20442;-70
2024/04/12 12:17:18;;;;;;;2.87;1.47;;;29.20;27.20;;;;;;5528030;25;20939;-69
2024/04/12 12:19:52;;;;;;;7.10;2.03;;;29.20;28.20;;;;;;5527341;25;20494;-69
2024/04/12 12:22:19;;;;;;;4.60;1.73;;;29.20;28.60;;;;;;5490704;26;20556;-70
2024/04/12 12:24:48;;;;;;;4.33;1.90;;;29.30;27.80;;;;;;5490998;26;20455;-69
2024/04/12 12:27:16;;;;;;;4.07;2.00;;;29.10;27.70;;;;;;5490527;26;20490;-69
2024/04/12 12:29:48;;;;;;;3.07;1.80;;;29.00;27.90;;;;;;5490553;26;20455;-69
2024/04/12 12:32:15;;;;;;;7.20;2.10;;;29.00;28.60;;;;;;5490487;26;20459;-70
2024/04/12 12:34:46;;;;;;;4.13;2.03;;;29.10;28.30;;;;;;5490365;26;20447;-69
2024/04/12 12:37:12;;;;;;;5.67;1.70;;;29.00;27.70;;;;;;5490744;26;20471;-69
2024/04/12 12:39:41;;;;;;;3.80;2.07;;;29.00;27.70;;;;;;5490408;26;20456;-69
2024/04/12 12:42:12;;;;;;;4.23;2.20;;;29.00;27.60;;;;;;5487379;26;20455;-69
2024/04/12 12:44:41;;;;;;;4.70;2.00;;;28.90;27.50;;;;;;5489134;26;20452;-70
2024/04/12 12:47:12;;;;;;;3.57;1.57;;;28.70;28.10;;;;;;5485439;26;20452;-69
2024/04/12 12:49:46;;;;;;;4.10;1.60;;;28.60;28.50;;;;;;5482883;26;20507;-69
2024/04/12 12:52:13;;;;;;;3.60;1.50;;;28.40;28.90;;;;;;5490129;26;20471;-69
2024/04/12 12:54:43;;;;;;;3.33;1.70;;;28.20;28.70;;;;;;5485191;26;20519;-69
2024/04/12 12:57:10;;;;;;;4.10;2.17;;;28.20;29.40;;;;;;5490460;26;20455;-69
2024/04/12 12:59:47;;;;;;;7.17;1.70;;;28.00;29.20;;;;;;5487764;26;20552;-69
2024/04/12 13:02:16;;;;;;;4.83;1.93;;;27.90;29.10;;;;;;5486888;26;20693;-69
2024/04/12 13:04:46;;;;;;;5.23;2.00;;;27.80;29.80;;;;;;5489706;26;20447;-69
2024/04/12 13:07:15;;;;;;;4.77;2.00;;;27.60;30.80;;;;;;5489836;26;20499;-69
2024/04/12 13:09:53;;;;;;;3.10;1.80;;;27.40;29.70;;;;;;5489809;26;20448;-70
2024/04/12 13:12:19;;;;;;;6.13;2.17;;;27.40;30.20;;;;;;5489790;26;20519;-69
2024/04/12 13:14:50;;;;;;;3.43;1.73;;;27.20;30.10;;;;;;5490015;26;20780;-69
2024/04/12 13:17:23;;;;;;;4.10;2.03;;;27.10;30.70;;;;;;5490050;26;20495;-69
2024/04/12 13:19:52;;;;;;;4.73;2.10;;;27.00;29.90;;;;;;5489714;26;20451;-70
2024/04/12 13:22:19;;;;;;;5.87;2.03;;;26.90;30.70;;;;;;5489668;26;20871;-69
2024/04/12 13:24:48;;;;;;;5.37;2.47;;;26.80;31.40;;;;;;5489679;26;20506;-69
2024/04/12 13:27:18;;;;;;;6.07;1.90;;;26.60;31.10;;;;;;5490551;26;20500;-69
2024/04/12 13:29:48;;;;;;;4.30;2.03;;;26.50;30.90;;;;;;5489607;26;20511;-69
2024/04/12 13:32:14;;;;;;;5.73;3.07;;;26.40;30.80;;;;;;5489526;26;20447;-69
2024/04/12 13:34:47;;;;;;;3.40;2.00;;;26.20;31.30;;;;;;5489866;26;20447;-69
2024/04/12 13:37:14;;;;;;;3.53;1.80;;;26.20;31.70;;;;;;5493122;26;20784;-70
2024/04/12 13:39:48;;;;;;;4.60;2.00;;;26.10;31.80;;;;;;5492887;26;20852;-70
2024/04/12 13:42:23;;;;;;;4.90;2.30;;;26.00;31.30;;;;;;5491703;26;20446;-69
2024/04/12 13:53:31;;;;;;;5.13;2.30;;;25.90;33.00;;;;;;5484053;26;20945;-69
2024/04/12 13:56:19;;;;;;;8.83;3.13;;;25.80;33.70;;;;;;5489861;26;20467;-69
2024/04/12 13:58:49;;;;;;;3.83;2.73;;;25.80;32.20;;;;;;5488021;26;20463;-70
2024/04/12 14:01:22;;;;;;;6.27;2.77;;;25.70;32.80;;;;;;5491130;26;20451;-69
2024/04/12 14:03:52;;;;;;;5.43;2.30;;;25.70;32.60;;;;;;5487906;26;20560;-69
2024/04/12 14:06:32;;;;;;;7.23;2.87;;;25.60;32.20;;;;;;5492426;26;20515;-69
2024/04/12 14:09:00;;;;;;;4.77;2.00;;;25.60;32.30;;;;;;5489472;26;20447;-69
2024/04/12 14:11:29;;;;;;;5.83;2.40;;;25.50;32.90;;;;;;5492546;26;20495;-70
2024/04/12 14:13:57;;;;;;;6.43;3.10;;;25.40;32.00;;;;;;5492403;26;20557;-69
2024/04/12 14:16:28;;;;;;;4.40;2.80;;;25.40;32.70;;;;;;5492136;26;20443;-69
2024/04/12 14:18:55;;;;;;;5.40;2.30;;;25.30;32.90;;;;;;5492395;26;20569;-70
2024/04/12 14:21:24;;;;;;;5.80;2.30;;;25.30;32.70;;;;;;5492346;26;20506;-69
2024/04/12 14:24:00;;;;;;;4.70;1.93;;;25.10;32.70;;;;;;5492542;26;20579;-70
2024/04/12 14:26:31;;;;;;;4.97;2.17;;;25.00;34.10;;;;;;5492653;26;20503;-69
2024/04/12 14:29:01;;;;;;;3.80;1.90;;;25.00;33.60;;;;;;5492332;26;20462;-69
2024/04/12 14:31:30;;;;;;;7.90;3.27;;;24.90;32.90;;;;;;5492221;26;20455;-69
2024/04/12 14:34:01;;;;;;;5.07;2.20;;;24.90;33.50;;;;;;5492212;26;20455;-69
2024/04/12 14:36:29;;;;;;;6.97;2.53;;;24.80;33.20;;;;;;5492471;26;20586;-69